sensor_id;sensor_type;location;lat;lon;timestamp;P1;durP1;ratioP1;P2;durP2;ratioP2
20122;SDS011;10222;50.848;4.336;2023-06-14T00:02:13;7.03;;;4.22;;
20122;SDS011;10222;50.848;4.336;2023-06-14T00:04:40;5.03;;;3.13;;
20122;SDS011;10222;50.848;4.336;2023-06-14T00:07:07;3.83;;;2.65;;
20122;SDS011;10222;50.848;4.336;2023-06-14T00:09:34;4.20;;;3.08;;
20122;SDS011;10222;50.848;4.336;2023-06-14T00:12:01;6.75;;;3.63;;
20122;SDS011;10222;50.848;4.336;2023-06-14T00:14:27;5.13;;;3.40;;
20122;SDS011;10222;50.848;4.336;2023-06-14T00:16:55;4.28;;;2.90;;
20122;SDS011;10222;50.848;4.336;2023-06-14T00:19:24;6.05;;;4.00;;
20122;SDS011;10222;50.848;4.336;2023-06-14T00:21:50;5.18;;;3.03;;
20122;SDS011;10222;50.848;4.336;2023-06-14T00:24:22;5.97;;;3.40;;
20122;SDS011;10222;50.848;4.336;2023-06-14T00:26:49;5.85;;;3.22;;
20122;SDS011;10222;50.848;4.336;2023-06-14T00:29:16;6.20;;;3.33;;
20122;SDS011;10222;50.848;4.336;2023-06-14T00:31:42;5.50;;;3.55;;
20122;SDS011;10222;50.848;4.336;2023-06-14T00:34:08;6.55;;;3.45;;
20122;SDS011;10222;50.848;4.336;2023-06-14T00:36:36;5.25;;;3.00;;
20122;SDS011;10222;50.848;4.336;2023-06-14T00:39:02;5.47;;;3.53;;
20122;SDS011;10222;50.848;4.336;2023-06-14T00:41:29;6.00;;;3.45;;
20122;SDS011;10222;50.848;4.336;2023-06-14T00:43:55;6.57;;;3.47;;
20122;SDS011;10222;50.848;4.336;2023-06-14T00:46:24;4.22;;;3.08;;
20122;SDS011;10222;50.848;4.336;2023-06-14T00:48:52;5.50;;;3.55;;
20122;SDS011;10222;50.848;4.336;2023-06-14T00:51:21;3.63;;;3.05;;
20122;SDS011;10222;50.848;4.336;2023-06-14T00:53:48;5.07;;;2.85;;
20122;SDS011;10222;50.848;4.336;2023-06-14T00:56:14;4.68;;;3.53;;
20122;SDS011;10222;50.848;4.336;2023-06-14T00:58:41;4.57;;;3.67;;
20122;SDS011;10222;50.848;4.336;2023-06-14T01:01:07;6.13;;;3.33;;
20122;SDS011;10222;50.848;4.336;2023-06-14T01:03:34;4.63;;;3.25;;
20122;SDS011;10222;50.848;4.336;2023-06-14T01:06:15;5.03;;;3.58;;
20122;SDS011;10222;50.848;4.336;2023-06-14T01:08:59;5.47;;;3.40;;
20122;SDS011;10222;50.848;4.336;2023-06-14T01:11:28;4.05;;;3.08;;
20122;SDS011;10222;50.848;4.336;2023-06-14T01:13:56;7.15;;;4.05;;
20122;SDS011;10222;50.848;4.336;2023-06-14T01:16:25;6.22;;;3.28;;
20122;SDS011;10222;50.848;4.336;2023-06-14T01:18:52;6.70;;;3.13;;
20122;SDS011;10222;50.848;4.336;2023-06-14T01:21:25;4.75;;;3.67;;
20122;SDS011;10222;50.848;4.336;2023-06-14T01:23:53;5.03;;;3.13;;
20122;SDS011;10222;50.848;4.336;2023-06-14T01:26:23;5.07;;;3.60;;
20122;SDS011;10222;50.848;4.336;2023-06-14T01:28:53;6.55;;;3.65;;
20122;SDS011;10222;50.848;4.336;2023-06-14T01:31:23;6.38;;;3.65;;
20122;SDS011;10222;50.848;4.336;2023-06-14T01:33:50;4.72;;;3.30;;
20122;SDS011;10222;50.848;4.336;2023-06-14T01:36:19;4.30;;;3.28;;
20122;SDS011;10222;50.848;4.336;2023-06-14T01:38:46;9.40;;;3.75;;
20122;SDS011;10222;50.848;4.336;2023-06-14T01:41:16;4.88;;;3.65;;
20122;SDS011;10222;50.848;4.336;2023-06-14T01:43:45;6.03;;;3.72;;
20122;SDS011;10222;50.848;4.336;2023-06-14T01:46:13;5.25;;;3.83;;
20122;SDS011;10222;50.848;4.336;2023-06-14T01:48:42;5.50;;;3.88;;
20122;SDS011;10222;50.848;4.336;2023-06-14T01:51:09;7.00;;;3.28;;
20122;SDS011;10222;50.848;4.336;2023-06-14T01:53:36;5.55;;;3.60;;
20122;SDS011;10222;50.848;4.336;2023-06-14T01:56:02;5.18;;;3.55;;
20122;SDS011;10222;50.848;4.336;2023-06-14T01:58:28;6.03;;;3.78;;
20122;SDS011;10222;50.848;4.336;2023-06-14T02:00:54;6.25;;;4.07;;
20122;SDS011;10222;50.848;4.336;2023-06-14T02:03:27;5.70;;;4.10;;
20122;SDS011;10222;50.848;4.336;2023-06-14T02:05:53;6.10;;;3.53;;
20122;SDS011;10222;50.848;4.336;2023-06-14T02:08:21;7.07;;;4.03;;
20122;SDS011;10222;50.848;4.336;2023-06-14T02:10:48;10.00;;;4.25;;
20122;SDS011;10222;50.848;4.336;2023-06-14T02:13:16;7.63;;;3.70;;
20122;SDS011;10222;50.848;4.336;2023-06-14T02:15:43;6.75;;;4.45;;
20122;SDS011;10222;50.848;4.336;2023-06-14T02:18:10;6.63;;;3.97;;
20122;SDS011;10222;50.848;4.336;2023-06-14T02:20:36;6.30;;;4.03;;
20122;SDS011;10222;50.848;4.336;2023-06-14T02:23:03;7.47;;;4.75;;
20122;SDS011;10222;50.848;4.336;2023-06-14T02:25:30;5.75;;;4.07;;
20122;SDS011;10222;50.848;4.336;2023-06-14T02:27:58;6.22;;;4.13;;
20122;SDS011;10222;50.848;4.336;2023-06-14T02:30:24;4.82;;;3.38;;
20122;SDS011;10222;50.848;4.336;2023-06-14T02:32:51;7.00;;;4.22;;
20122;SDS011;10222;50.848;4.336;2023-06-14T02:35:21;9.80;;;4.30;;
20122;SDS011;10222;50.848;4.336;2023-06-14T02:37:50;6.40;;;3.70;;
20122;SDS011;10222;50.848;4.336;2023-06-14T02:40:19;6.15;;;4.05;;
20122;SDS011;10222;50.848;4.336;2023-06-14T02:42:45;4.70;;;3.58;;
20122;SDS011;10222;50.848;4.336;2023-06-14T02:45:12;4.47;;;3.50;;
20122;SDS011;10222;50.848;4.336;2023-06-14T02:47:39;7.32;;;4.57;;
20122;SDS011;10222;50.848;4.336;2023-06-14T02:50:07;5.78;;;3.78;;
20122;SDS011;10222;50.848;4.336;2023-06-14T02:52:34;6.60;;;4.50;;
20122;SDS011;10222;50.848;4.336;2023-06-14T02:55:00;8.43;;;4.63;;
20122;SDS011;10222;50.848;4.336;2023-06-14T02:57:26;6.28;;;3.88;;
20122;SDS011;10222;50.848;4.336;2023-06-14T02:59:52;7.78;;;4.25;;
20122;SDS011;10222;50.848;4.336;2023-06-14T03:02:19;6.03;;;4.50;;
20122;SDS011;10222;50.848;4.336;2023-06-14T03:04:45;5.55;;;4.35;;
20122;SDS011;10222;50.848;4.336;2023-06-14T03:07:11;6.67;;;4.37;;
20122;SDS011;10222;50.848;4.336;2023-06-14T03:09:39;8.37;;;4.10;;
20122;SDS011;10222;50.848;4.336;2023-06-14T03:12:05;7.37;;;4.50;;
20122;SDS011;10222;50.848;4.336;2023-06-14T03:14:32;5.90;;;4.10;;
20122;SDS011;10222;50.848;4.336;2023-06-14T03:16:59;9.30;;;4.73;;
20122;SDS011;10222;50.848;4.336;2023-06-14T03:19:27;4.83;;;3.93;;
20122;SDS011;10222;50.848;4.336;2023-06-14T03:21:53;6.37;;;3.83;;
20122;SDS011;10222;50.848;4.336;2023-06-14T03:26:53;10.37;;;4.97;;
20122;SDS011;10222;50.848;4.336;2023-06-14T03:29:26;8.85;;;4.50;;
20122;SDS011;10222;50.848;4.336;2023-06-14T03:32:02;6.17;;;4.00;;
20122;SDS011;10222;50.848;4.336;2023-06-14T03:34:29;5.87;;;4.47;;
20122;SDS011;10222;50.848;4.336;2023-06-14T03:36:57;9.33;;;4.37;;
20122;SDS011;10222;50.848;4.336;2023-06-14T03:39:24;6.33;;;4.33;;
20122;SDS011;10222;50.848;4.336;2023-06-14T03:41:51;6.33;;;4.87;;
20122;SDS011;10222;50.848;4.336;2023-06-14T03:44:18;7.25;;;4.47;;
20122;SDS011;10222;50.848;4.336;2023-06-14T03:46:45;6.40;;;4.63;;
20122;SDS011;10222;50.848;4.336;2023-06-14T03:49:14;9.50;;;5.20;;
20122;SDS011;10222;50.848;4.336;2023-06-14T03:51:44;6.27;;;4.50;;
20122;SDS011;10222;50.848;4.336;2023-06-14T03:56:45;8.63;;;4.63;;
20122;SDS011;10222;50.848;4.336;2023-06-14T03:59:11;6.55;;;4.13;;
20122;SDS011;10222;50.848;4.336;2023-06-14T04:01:38;8.93;;;4.90;;
20122;SDS011;10222;50.848;4.336;2023-06-14T04:04:10;9.03;;;4.93;;
20122;SDS011;10222;50.848;4.336;2023-06-14T04:06:38;9.20;;;4.38;;
20122;SDS011;10222;50.848;4.336;2023-06-14T04:09:05;6.63;;;4.67;;
20122;SDS011;10222;50.848;4.336;2023-06-14T04:11:31;5.73;;;4.27;;
20122;SDS011;10222;50.848;4.336;2023-06-14T04:13:57;7.80;;;4.47;;
20122;SDS011;10222;50.848;4.336;2023-06-14T04:16:25;7.33;;;4.50;;
20122;SDS011;10222;50.848;4.336;2023-06-14T04:18:54;6.68;;;4.38;;
20122;SDS011;10222;50.848;4.336;2023-06-14T04:21:22;7.47;;;4.37;;
20122;SDS011;10222;50.848;4.336;2023-06-14T04:23:50;8.30;;;5.03;;
20122;SDS011;10222;50.848;4.336;2023-06-14T04:28:49;6.73;;;4.27;;
20122;SDS011;10222;50.848;4.336;2023-06-14T04:31:17;6.67;;;4.67;;
20122;SDS011;10222;50.848;4.336;2023-06-14T04:33:44;5.87;;;4.10;;
20122;SDS011;10222;50.848;4.336;2023-06-14T04:36:13;5.90;;;3.83;;
20122;SDS011;10222;50.848;4.336;2023-06-14T04:38:42;6.68;;;4.47;;
20122;SDS011;10222;50.848;4.336;2023-06-14T04:41:10;8.97;;;4.30;;
20122;SDS011;10222;50.848;4.336;2023-06-14T04:43:36;7.23;;;4.57;;
20122;SDS011;10222;50.848;4.336;2023-06-14T04:46:03;8.07;;;4.17;;
20122;SDS011;10222;50.848;4.336;2023-06-14T04:48:33;7.37;;;4.60;;
20122;SDS011;10222;50.848;4.336;2023-06-14T04:51:01;9.43;;;3.83;;
20122;SDS011;10222;50.848;4.336;2023-06-14T04:53:29;7.10;;;4.57;;
20122;SDS011;10222;50.848;4.336;2023-06-14T04:55:56;7.07;;;4.20;;
20122;SDS011;10222;50.848;4.336;2023-06-14T04:58:22;6.23;;;4.43;;
20122;SDS011;10222;50.848;4.336;2023-06-14T05:00:48;7.70;;;4.40;;
20122;SDS011;10222;50.848;4.336;2023-06-14T05:03:14;8.17;;;4.70;;
20122;SDS011;10222;50.848;4.336;2023-06-14T05:05:49;7.73;;;4.83;;
20122;SDS011;10222;50.848;4.336;2023-06-14T05:08:15;7.03;;;4.53;;
20122;SDS011;10222;50.848;4.336;2023-06-14T05:10:44;8.30;;;5.00;;
20122;SDS011;10222;50.848;4.336;2023-06-14T05:13:11;8.20;;;4.93;;
20122;SDS011;10222;50.848;4.336;2023-06-14T05:15:37;8.50;;;4.37;;
20122;SDS011;10222;50.848;4.336;2023-06-14T05:18:04;8.40;;;4.93;;
20122;SDS011;10222;50.848;4.336;2023-06-14T05:20:31;5.60;;;3.93;;
20122;SDS011;10222;50.848;4.336;2023-06-14T05:22:58;6.30;;;4.47;;
20122;SDS011;10222;50.848;4.336;2023-06-14T05:25:24;6.60;;;4.53;;
20122;SDS011;10222;50.848;4.336;2023-06-14T05:27:51;8.07;;;4.37;;
20122;SDS011;10222;50.848;4.336;2023-06-14T05:30:18;6.60;;;4.33;;
20122;SDS011;10222;50.848;4.336;2023-06-14T05:32:44;8.57;;;4.73;;
20122;SDS011;10222;50.848;4.336;2023-06-14T05:35:10;7.20;;;4.53;;
20122;SDS011;10222;50.848;4.336;2023-06-14T05:37:37;11.13;;;5.07;;
20122;SDS011;10222;50.848;4.336;2023-06-14T05:40:04;6.97;;;4.57;;
20122;SDS011;10222;50.848;4.336;2023-06-14T05:42:31;7.63;;;4.07;;
20122;SDS011;10222;50.848;4.336;2023-06-14T05:44:57;9.17;;;4.60;;
20122;SDS011;10222;50.848;4.336;2023-06-14T05:47:23;9.40;;;4.60;;
20122;SDS011;10222;50.848;4.336;2023-06-14T05:49:49;7.77;;;4.67;;
20122;SDS011;10222;50.848;4.336;2023-06-14T05:52:15;10.23;;;3.67;;
20122;SDS011;10222;50.848;4.336;2023-06-14T05:54:41;8.73;;;4.43;;
20122;SDS011;10222;50.848;4.336;2023-06-14T05:57:10;8.30;;;4.90;;
20122;SDS011;10222;50.848;4.336;2023-06-14T05:59:36;10.03;;;4.63;;
20122;SDS011;10222;50.848;4.336;2023-06-14T06:02:02;6.37;;;4.87;;
20122;SDS011;10222;50.848;4.336;2023-06-14T06:04:28;6.00;;;4.22;;
20122;SDS011;10222;50.848;4.336;2023-06-14T06:06:54;7.13;;;4.40;;
20122;SDS011;10222;50.848;4.336;2023-06-14T06:09:21;6.60;;;4.40;;
20122;SDS011;10222;50.848;4.336;2023-06-14T06:11:47;7.23;;;4.13;;
20122;SDS011;10222;50.848;4.336;2023-06-14T06:14:13;6.63;;;4.20;;
20122;SDS011;10222;50.848;4.336;2023-06-14T06:16:39;5.27;;;3.87;;
20122;SDS011;10222;50.848;4.336;2023-06-14T06:19:06;7.77;;;4.70;;
20122;SDS011;10222;50.848;4.336;2023-06-14T06:21:32;7.03;;;4.20;;
20122;SDS011;10222;50.848;4.336;2023-06-14T06:23:58;10.27;;;4.70;;
20122;SDS011;10222;50.848;4.336;2023-06-14T06:26:28;6.73;;;4.00;;
20122;SDS011;10222;50.848;4.336;2023-06-14T06:28:54;6.40;;;4.25;;
20122;SDS011;10222;50.848;4.336;2023-06-14T06:31:22;6.40;;;3.80;;
20122;SDS011;10222;50.848;4.336;2023-06-14T06:33:49;8.68;;;4.38;;
20122;SDS011;10222;50.848;4.336;2023-06-14T06:36:15;7.85;;;3.78;;
20122;SDS011;10222;50.848;4.336;2023-06-14T06:38:44;5.38;;;4.05;;
20122;SDS011;10222;50.848;4.336;2023-06-14T06:41:11;12.30;;;4.97;;
20122;SDS011;10222;50.848;4.336;2023-06-14T06:43:40;6.90;;;3.92;;
20122;SDS011;10222;50.848;4.336;2023-06-14T06:46:06;7.43;;;3.63;;
20122;SDS011;10222;50.848;4.336;2023-06-14T06:48:32;5.35;;;3.92;;
20122;SDS011;10222;50.848;4.336;2023-06-14T06:50:58;5.30;;;4.03;;
20122;SDS011;10222;50.848;4.336;2023-06-14T06:53:25;6.68;;;4.28;;
20122;SDS011;10222;50.848;4.336;2023-06-14T06:55:51;7.47;;;4.00;;
20122;SDS011;10222;50.848;4.336;2023-06-14T06:58:17;5.22;;;3.55;;
20122;SDS011;10222;50.848;4.336;2023-06-14T07:00:44;4.90;;;3.63;;
20122;SDS011;10222;50.848;4.336;2023-06-14T07:03:10;6.75;;;3.67;;
20122;SDS011;10222;50.848;4.336;2023-06-14T07:05:37;7.90;;;3.80;;
20122;SDS011;10222;50.848;4.336;2023-06-14T07:08:03;5.38;;;3.70;;
20122;SDS011;10222;50.848;4.336;2023-06-14T07:10:30;6.83;;;3.70;;
20122;SDS011;10222;50.848;4.336;2023-06-14T07:12:57;7.70;;;3.95;;
20122;SDS011;10222;50.848;4.336;2023-06-14T07:15:23;6.47;;;3.90;;
20122;SDS011;10222;50.848;4.336;2023-06-14T07:17:49;9.98;;;3.85;;
20122;SDS011;10222;50.848;4.336;2023-06-14T07:20:16;5.13;;;2.97;;
20122;SDS011;10222;50.848;4.336;2023-06-14T07:22:43;6.75;;;3.67;;
20122;SDS011;10222;50.848;4.336;2023-06-14T07:25:10;6.03;;;3.08;;
20122;SDS011;10222;50.848;4.336;2023-06-14T07:27:43;5.53;;;4.05;;
20122;SDS011;10222;50.848;4.336;2023-06-14T07:30:09;5.30;;;3.88;;
20122;SDS011;10222;50.848;4.336;2023-06-14T07:32:37;5.75;;;3.88;;
20122;SDS011;10222;50.848;4.336;2023-06-14T07:35:04;5.88;;;3.47;;
20122;SDS011;10222;50.848;4.336;2023-06-14T07:37:32;6.95;;;3.55;;
20122;SDS011;10222;50.848;4.336;2023-06-14T07:39:59;6.47;;;3.00;;
20122;SDS011;10222;50.848;4.336;2023-06-14T07:42:25;8.88;;;3.90;;
20122;SDS011;10222;50.848;4.336;2023-06-14T07:44:53;6.20;;;3.45;;
20122;SDS011;10222;50.848;4.336;2023-06-14T07:47:19;8.32;;;4.28;;
20122;SDS011;10222;50.848;4.336;2023-06-14T07:49:45;9.02;;;3.55;;
20122;SDS011;10222;50.848;4.336;2023-06-14T07:52:12;6.05;;;3.40;;
20122;SDS011;10222;50.848;4.336;2023-06-14T07:54:38;8.20;;;3.08;;
20122;SDS011;10222;50.848;4.336;2023-06-14T07:57:07;6.25;;;3.40;;
20122;SDS011;10222;50.848;4.336;2023-06-14T07:59:35;12.05;;;3.97;;
20122;SDS011;10222;50.848;4.336;2023-06-14T08:02:03;6.28;;;3.63;;
20122;SDS011;10222;50.848;4.336;2023-06-14T08:04:30;5.53;;;3.35;;
20122;SDS011;10222;50.848;4.336;2023-06-14T08:06:57;6.53;;;3.75;;
20122;SDS011;10222;50.848;4.336;2023-06-14T08:09:23;8.55;;;3.55;;
20122;SDS011;10222;50.848;4.336;2023-06-14T08:11:50;5.47;;;3.20;;
20122;SDS011;10222;50.848;4.336;2023-06-14T08:14:16;9.43;;;3.22;;
20122;SDS011;10222;50.848;4.336;2023-06-14T08:16:42;4.15;;;3.13;;
20122;SDS011;10222;50.848;4.336;2023-06-14T08:19:08;4.75;;;3.35;;
20122;SDS011;10222;50.848;4.336;2023-06-14T08:21:34;5.80;;;3.33;;
20122;SDS011;10222;50.848;4.336;2023-06-14T08:26:31;8.48;;;3.33;;
20122;SDS011;10222;50.848;4.336;2023-06-14T08:28:57;7.80;;;3.30;;
20122;SDS011;10222;50.848;4.336;2023-06-14T08:31:24;8.18;;;3.70;;
20122;SDS011;10222;50.848;4.336;2023-06-14T08:33:53;5.00;;;3.45;;
20122;SDS011;10222;50.848;4.336;2023-06-14T08:36:19;8.40;;;3.75;;
20122;SDS011;10222;50.848;4.336;2023-06-14T08:38:45;7.07;;;3.78;;
20122;SDS011;10222;50.848;4.336;2023-06-14T08:41:12;6.15;;;3.85;;
20122;SDS011;10222;50.848;4.336;2023-06-14T08:43:46;6.43;;;3.15;;
20122;SDS011;10222;50.848;4.336;2023-06-14T08:46:14;6.10;;;3.92;;
20122;SDS011;10222;50.848;4.336;2023-06-14T08:48:41;8.52;;;3.65;;
20122;SDS011;10222;50.848;4.336;2023-06-14T08:51:09;6.65;;;3.15;;
20122;SDS011;10222;50.848;4.336;2023-06-14T08:53:37;6.30;;;3.70;;
20122;SDS011;10222;50.848;4.336;2023-06-14T08:56:07;5.47;;;3.47;;
20122;SDS011;10222;50.848;4.336;2023-06-14T08:58:42;5.88;;;3.35;;
20122;SDS011;10222;50.848;4.336;2023-06-14T09:01:11;6.10;;;3.78;;
20122;SDS011;10222;50.848;4.336;2023-06-14T09:03:39;25.60;;;4.40;;
20122;SDS011;10222;50.848;4.336;2023-06-14T09:06:08;4.18;;;3.47;;
20122;SDS011;10222;50.848;4.336;2023-06-14T09:11:08;4.50;;;3.50;;
20122;SDS011;10222;50.848;4.336;2023-06-14T09:13:34;8.65;;;3.35;;
20122;SDS011;10222;50.848;4.336;2023-06-14T09:16:02;4.75;;;3.10;;
20122;SDS011;10222;50.848;4.336;2023-06-14T09:18:35;5.97;;;3.22;;
20122;SDS011;10222;50.848;4.336;2023-06-14T09:21:01;5.50;;;3.80;;
20122;SDS011;10222;50.848;4.336;2023-06-14T09:23:28;6.25;;;3.70;;
20122;SDS011;10222;50.848;4.336;2023-06-14T09:25:54;6.47;;;3.67;;
20122;SDS011;10222;50.848;4.336;2023-06-14T09:28:26;5.28;;;3.30;;
20122;SDS011;10222;50.848;4.336;2023-06-14T09:33:21;4.60;;;3.47;;
20122;SDS011;10222;50.848;4.336;2023-06-14T09:35:50;5.32;;;3.45;;
20122;SDS011;10222;50.848;4.336;2023-06-14T09:38:18;5.30;;;3.25;;
20122;SDS011;10222;50.848;4.336;2023-06-14T09:40:44;5.57;;;3.70;;
20122;SDS011;10222;50.848;4.336;2023-06-14T09:43:10;6.57;;;3.38;;
20122;SDS011;10222;50.848;4.336;2023-06-14T09:45:36;5.40;;;3.40;;
20122;SDS011;10222;50.848;4.336;2023-06-14T09:48:04;7.97;;;3.85;;
20122;SDS011;10222;50.848;4.336;2023-06-14T09:50:33;6.30;;;3.53;;
20122;SDS011;10222;50.848;4.336;2023-06-14T09:53:02;6.15;;;3.58;;
20122;SDS011;10222;50.848;4.336;2023-06-14T09:55:29;10.05;;;3.58;;
20122;SDS011;10222;50.848;4.336;2023-06-14T09:57:56;6.32;;;3.85;;
20122;SDS011;10222;50.848;4.336;2023-06-14T10:00:25;6.78;;;3.13;;
20122;SDS011;10222;50.848;4.336;2023-06-14T10:02:55;4.95;;;3.03;;
20122;SDS011;10222;50.848;4.336;2023-06-14T10:05:25;4.78;;;2.95;;
20122;SDS011;10222;50.848;4.336;2023-06-14T10:10:19;5.53;;;3.28;;
20122;SDS011;10222;50.848;4.336;2023-06-14T10:12:46;9.18;;;3.72;;
20122;SDS011;10222;50.848;4.336;2023-06-14T10:18:01;4.40;;;3.17;;
20122;SDS011;10222;50.848;4.336;2023-06-14T10:21:13;3.90;;;2.80;;
20122;SDS011;10222;50.848;4.336;2023-06-14T10:23:20;3.78;;;2.83;;
20122;SDS011;10222;50.848;4.336;2023-06-14T10:25:54;9.88;;;4.22;;
20122;SDS011;10222;50.848;4.336;2023-06-14T10:28:21;4.65;;;2.90;;
20122;SDS011;10222;50.848;4.336;2023-06-14T10:31:08;4.55;;;3.00;;
20122;SDS011;10222;50.848;4.336;2023-06-14T10:33:50;5.70;;;3.20;;
20122;SDS011;10222;50.848;4.336;2023-06-14T10:36:27;6.70;;;3.05;;
20122;SDS011;10222;50.848;4.336;2023-06-14T10:39:04;3.53;;;2.60;;
20122;SDS011;10222;50.848;4.336;2023-06-14T10:41:32;4.57;;;2.60;;
20122;SDS011;10222;50.848;4.336;2023-06-14T10:46:39;3.95;;;2.50;;
20122;SDS011;10222;50.848;4.336;2023-06-14T10:49:05;3.55;;;2.40;;
20122;SDS011;10222;50.848;4.336;2023-06-14T10:51:41;4.38;;;2.50;;
20122;SDS011;10222;50.848;4.336;2023-06-14T10:54:12;6.90;;;3.38;;
20122;SDS011;10222;50.848;4.336;2023-06-14T10:56:46;4.07;;;2.78;;
20122;SDS011;10222;50.848;4.336;2023-06-14T10:59:12;3.88;;;2.90;;
20122;SDS011;10222;50.848;4.336;2023-06-14T11:01:41;4.57;;;2.97;;
20122;SDS011;10222;50.848;4.336;2023-06-14T11:04:16;3.33;;;2.80;;
20122;SDS011;10222;50.848;4.336;2023-06-14T11:06:49;5.80;;;2.92;;
20122;SDS011;10222;50.848;4.336;2023-06-14T11:09:26;4.10;;;3.08;;
20122;SDS011;10222;50.848;4.336;2023-06-14T11:11:57;5.35;;;2.70;;
20122;SDS011;10222;50.848;4.336;2023-06-14T11:14:23;5.43;;;2.60;;
20122;SDS011;10222;50.848;4.336;2023-06-14T11:16:49;5.30;;;3.13;;
20122;SDS011;10222;50.848;4.336;2023-06-14T11:19:16;3.75;;;2.60;;
20122;SDS011;10222;50.848;4.336;2023-06-14T11:21:46;3.95;;;2.60;;
20122;SDS011;10222;50.848;4.336;2023-06-14T11:24:12;5.88;;;3.25;;
20122;SDS011;10222;50.848;4.336;2023-06-14T11:26:39;3.60;;;2.85;;
20122;SDS011;10222;50.848;4.336;2023-06-14T11:29:05;6.72;;;2.67;;
20122;SDS011;10222;50.848;4.336;2023-06-14T11:31:31;3.70;;;2.50;;
20122;SDS011;10222;50.848;4.336;2023-06-14T11:33:59;4.70;;;3.08;;
20122;SDS011;10222;50.848;4.336;2023-06-14T11:36:29;4.70;;;2.55;;
20122;SDS011;10222;50.848;4.336;2023-06-14T11:39:02;5.63;;;3.00;;
20122;SDS011;10222;50.848;4.336;2023-06-14T11:41:38;4.50;;;3.25;;
20122;SDS011;10222;50.848;4.336;2023-06-14T11:44:05;3.47;;;2.53;;
20122;SDS011;10222;50.848;4.336;2023-06-14T11:46:31;4.95;;;2.92;;
20122;SDS011;10222;50.848;4.336;2023-06-14T11:48:57;3.40;;;2.47;;
20122;SDS011;10222;50.848;4.336;2023-06-14T11:53:53;4.10;;;2.47;;
20122;SDS011;10222;50.848;4.336;2023-06-14T11:56:21;4.03;;;2.55;;
20122;SDS011;10222;50.848;4.336;2023-06-14T11:58:48;4.53;;;2.90;;
20122;SDS011;10222;50.848;4.336;2023-06-14T12:01:16;3.75;;;3.03;;
20122;SDS011;10222;50.848;4.336;2023-06-14T12:03:51;5.72;;;2.85;;
20122;SDS011;10222;50.848;4.336;2023-06-14T12:06:24;3.88;;;2.60;;
20122;SDS011;10222;50.848;4.336;2023-06-14T12:08:55;3.70;;;2.65;;
20122;SDS011;10222;50.848;4.336;2023-06-14T12:11:20;2.80;;;2.50;;
20122;SDS011;10222;50.848;4.336;2023-06-14T12:13:47;5.13;;;2.92;;
20122;SDS011;10222;50.848;4.336;2023-06-14T12:16:14;6.93;;;2.78;;
20122;SDS011;10222;50.848;4.336;2023-06-14T12:18:40;3.38;;;2.80;;
20122;SDS011;10222;50.848;4.336;2023-06-14T12:21:08;10.98;;;3.20;;
20122;SDS011;10222;50.848;4.336;2023-06-14T12:23:42;3.20;;;2.50;;
20122;SDS011;10222;50.848;4.336;2023-06-14T12:26:11;3.33;;;2.22;;
20122;SDS011;10222;50.848;4.336;2023-06-14T12:28:37;2.97;;;2.40;;
20122;SDS011;10222;50.848;4.336;2023-06-14T12:31:06;4.32;;;2.78;;
20122;SDS011;10222;50.848;4.336;2023-06-14T12:33:32;5.15;;;2.75;;
20122;SDS011;10222;50.848;4.336;2023-06-14T12:35:58;3.42;;;2.20;;
20122;SDS011;10222;50.848;4.336;2023-06-14T12:38:24;4.53;;;2.35;;
20122;SDS011;10222;50.848;4.336;2023-06-14T12:40:50;4.13;;;2.35;;
20122;SDS011;10222;50.848;4.336;2023-06-14T12:43:17;3.10;;;2.15;;
20122;SDS011;10222;50.848;4.336;2023-06-14T12:45:43;2.72;;;2.13;;
20122;SDS011;10222;50.848;4.336;2023-06-14T12:48:09;3.50;;;2.47;;
20122;SDS011;10222;50.848;4.336;2023-06-14T12:50:35;4.03;;;2.30;;
20122;SDS011;10222;50.848;4.336;2023-06-14T12:53:01;5.60;;;2.38;;
20122;SDS011;10222;50.848;4.336;2023-06-14T12:55:27;3.85;;;2.63;;
20122;SDS011;10222;50.848;4.336;2023-06-14T12:57:53;5.07;;;2.40;;
20122;SDS011;10222;50.848;4.336;2023-06-14T13:00:19;3.47;;;2.13;;
20122;SDS011;10222;50.848;4.336;2023-06-14T13:02:46;2.95;;;1.98;;
20122;SDS011;10222;50.848;4.336;2023-06-14T13:05:12;3.55;;;2.20;;
20122;SDS011;10222;50.848;4.336;2023-06-14T13:07:38;2.22;;;1.90;;
20122;SDS011;10222;50.848;4.336;2023-06-14T13:10:04;3.25;;;2.33;;
20122;SDS011;10222;50.848;4.336;2023-06-14T13:12:30;3.40;;;2.03;;
20122;SDS011;10222;50.848;4.336;2023-06-14T13:14:56;3.10;;;2.10;;
20122;SDS011;10222;50.848;4.336;2023-06-14T13:17:26;2.97;;;2.25;;
20122;SDS011;10222;50.848;4.336;2023-06-14T13:19:52;2.42;;;2.00;;
20122;SDS011;10222;50.848;4.336;2023-06-14T13:22:18;2.67;;;2.00;;
20122;SDS011;10222;50.848;4.336;2023-06-14T13:24:44;3.70;;;2.05;;
20122;SDS011;10222;50.848;4.336;2023-06-14T13:27:10;3.30;;;2.28;;
20122;SDS011;10222;50.848;4.336;2023-06-14T13:29:39;5.75;;;1.90;;
20122;SDS011;10222;50.848;4.336;2023-06-14T13:32:05;5.97;;;1.95;;
20122;SDS011;10222;50.848;4.336;2023-06-14T13:37:00;2.95;;;2.05;;
20122;SDS011;10222;50.848;4.336;2023-06-14T13:39:27;2.05;;;1.60;;
20122;SDS011;10222;50.848;4.336;2023-06-14T13:41:53;3.90;;;1.92;;
20122;SDS011;10222;50.848;4.336;2023-06-14T13:44:21;3.42;;;1.48;;
20122;SDS011;10222;50.848;4.336;2023-06-14T13:46:48;3.58;;;2.28;;
20122;SDS011;10222;50.848;4.336;2023-06-14T13:49:15;3.70;;;1.90;;
20122;SDS011;10222;50.848;4.336;2023-06-14T13:51:41;4.32;;;1.92;;
20122;SDS011;10222;50.848;4.336;2023-06-14T13:54:07;4.70;;;2.13;;
20122;SDS011;10222;50.848;4.336;2023-06-14T13:56:33;2.45;;;1.70;;
20122;SDS011;10222;50.848;4.336;2023-06-14T13:59:00;6.22;;;1.63;;
20122;SDS011;10222;50.848;4.336;2023-06-14T14:01:26;6.15;;;2.75;;
20122;SDS011;10222;50.848;4.336;2023-06-14T14:03:54;2.05;;;1.42;;
20122;SDS011;10222;50.848;4.336;2023-06-14T14:06:20;2.75;;;1.58;;
20122;SDS011;10222;50.848;4.336;2023-06-14T14:08:46;4.22;;;1.50;;
20122;SDS011;10222;50.848;4.336;2023-06-14T14:11:12;2.90;;;1.80;;
20122;SDS011;10222;50.848;4.336;2023-06-14T14:13:38;2.00;;;1.40;;
20122;SDS011;10222;50.848;4.336;2023-06-14T14:16:05;1.52;;;1.40;;
20122;SDS011;10222;50.848;4.336;2023-06-14T14:18:31;1.60;;;1.20;;
20122;SDS011;10222;50.848;4.336;2023-06-14T14:20:57;3.42;;;1.23;;
20122;SDS011;10222;50.848;4.336;2023-06-14T14:23:25;2.55;;;1.30;;
20122;SDS011;10222;50.848;4.336;2023-06-14T14:25:51;3.35;;;1.45;;
20122;SDS011;10222;50.848;4.336;2023-06-14T14:28:17;2.80;;;1.25;;
20122;SDS011;10222;50.848;4.336;2023-06-14T14:30:45;2.63;;;1.15;;
20122;SDS011;10222;50.848;4.336;2023-06-14T14:33:12;1.67;;;1.00;;
20122;SDS011;10222;50.848;4.336;2023-06-14T14:35:41;1.55;;;0.98;;
20122;SDS011;10222;50.848;4.336;2023-06-14T14:38:07;1.98;;;1.08;;
20122;SDS011;10222;50.848;4.336;2023-06-14T14:40:33;1.98;;;1.10;;
20122;SDS011;10222;50.848;4.336;2023-06-14T14:42:59;1.60;;;0.75;;
20122;SDS011;10222;50.848;4.336;2023-06-14T14:45:25;1.50;;;0.98;;
20122;SDS011;10222;50.848;4.336;2023-06-14T14:47:51;1.10;;;1.00;;
20122;SDS011;10222;50.848;4.336;2023-06-14T14:50:17;1.50;;;1.05;;
20122;SDS011;10222;50.848;4.336;2023-06-14T14:52:43;1.20;;;0.98;;
20122;SDS011;10222;50.848;4.336;2023-06-14T14:55:10;2.80;;;0.88;;
20122;SDS011;10222;50.848;4.336;2023-06-14T14:57:36;3.10;;;0.95;;
20122;SDS011;10222;50.848;4.336;2023-06-14T15:00:02;1.27;;;0.95;;
20122;SDS011;10222;50.848;4.336;2023-06-14T15:02:29;2.10;;;0.60;;
20122;SDS011;10222;50.848;4.336;2023-06-14T15:04:55;1.20;;;0.80;;
20122;SDS011;10222;50.848;4.336;2023-06-14T15:07:25;2.85;;;1.13;;
20122;SDS011;10222;50.848;4.336;2023-06-14T15:09:51;2.55;;;0.93;;
20122;SDS011;10222;50.848;4.336;2023-06-14T15:12:17;1.80;;;0.90;;
20122;SDS011;10222;50.848;4.336;2023-06-14T15:14:45;0.70;;;0.70;;
20122;SDS011;10222;50.848;4.336;2023-06-14T15:17:11;2.55;;;1.23;;
20122;SDS011;10222;50.848;4.336;2023-06-14T15:19:37;5.93;;;2.30;;